createdAt,value
2018-09-22T00:01:35.199Z,98739.48
2018-09-22T00:04:03.501Z,98730.23
2018-09-22T00:06:31.801Z,98732.72
2018-09-22T00:09:00.119Z,98736.03
2018-09-22T00:11:28.394Z,98745.20
2018-09-22T00:13:56.734Z,98737.86
2018-09-22T00:16:25.008Z,98735.92
2018-09-22T00:18:53.323Z,98733.71
2018-09-22T00:21:21.616Z,98741.61
2018-09-22T00:23:49.909Z,98740.20
2018-09-22T00:26:18.186Z,98743.55
2018-09-22T00:28:46.515Z,98740.55
2018-09-22T00:31:14.782Z,98742.92
2018-09-22T00:33:43.112Z,98744.41
2018-09-22T00:36:11.391Z,98749.16
2018-09-22T00:38:39.715Z,98761.19
2018-09-22T00:41:07.988Z,98753.97
2018-09-22T00:43:36.285Z,98749.95
2018-09-22T00:46:04.571Z,98755.19
2018-09-22T00:48:32.868Z,98755.00
2018-09-22T00:51:01.239Z,98752.59
2018-09-22T00:53:29.526Z,98754.36
2018-09-22T00:55:57.823Z,98752.33
2018-09-22T00:58:26.205Z,98759.98
2018-09-22T01:00:54.555Z,98758.66
2018-09-22T01:03:22.887Z,98768.53
2018-09-22T01:05:51.211Z,98764.36
2018-09-22T01:08:19.498Z,98776.36
2018-09-22T01:10:47.858Z,98785.95
2018-09-22T01:13:16.178Z,98787.78
2018-09-22T01:15:44.607Z,98800.22
2018-09-22T01:18:12.923Z,98803.12
2018-09-22T01:20:41.247Z,98814.51
2018-09-22T01:23:09.571Z,98812.41
2018-09-22T01:25:37.848Z,98823.67
2018-09-22T01:28:06.218Z,98822.53
2018-09-22T01:30:34.528Z,98828.66
2018-09-22T01:33:02.863Z,98833.58
2018-09-22T01:35:31.143Z,98843.81
2018-09-22T01:37:59.438Z,98834.03
2018-09-22T01:40:27.734Z,98835.50
2018-09-22T01:42:56.059Z,98839.30
2018-09-22T01:45:24.467Z,98842.23
2018-09-22T01:47:52.811Z,98843.22
2018-09-22T01:50:21.084Z,98838.17
2018-09-22T01:52:49.405Z,98838.42
2018-09-22T01:55:17.677Z,98833.27
2018-09-22T01:57:45.971Z,98842.18
2018-09-22T02:00:14.294Z,98844.94
2018-09-22T02:02:42.559Z,98849.72
2018-09-22T02:05:10.904Z,98852.69
2018-09-22T02:07:39.187Z,98850.65
2018-09-22T02:10:07.644Z,98854.94
2018-09-22T02:12:35.927Z,98857.59
2018-09-22T02:15:04.308Z,98861.47
2018-09-22T02:17:32.586Z,98857.73
2018-09-22T02:20:01.017Z,98868.89
2018-09-22T02:22:29.311Z,98860.13
2018-09-22T02:24:57.619Z,98872.48
2018-09-22T02:27:25.907Z,98877.27
2018-09-22T02:29:54.210Z,98877.11
2018-09-22T02:32:22.503Z,98874.28
2018-09-22T02:34:50.807Z,98877.65
2018-09-22T02:37:19.500Z,98883.70
2018-09-22T02:39:47.790Z,98882.48
2018-09-22T02:42:16.082Z,98892.79
2018-09-22T02:44:44.381Z,98891.19
2018-09-22T02:47:12.695Z,98903.56
2018-09-22T02:49:40.987Z,98902.23
2018-09-22T02:52:09.269Z,98895.95
2018-09-22T02:54:37.598Z,98897.78
2018-09-22T02:57:06.164Z,98891.34
2018-09-22T02:59:34.693Z,98900.88
2018-09-22T03:02:02.964Z,98897.03
2018-09-22T03:04:31.412Z,98896.80
2018-09-22T03:06:59.743Z,98901.15
2018-09-22T03:09:28.054Z,98903.56
2018-09-22T03:11:56.324Z,98904.59
2018-09-22T03:14:24.656Z,98907.34
2018-09-22T03:16:52.940Z,98901.78
2018-09-22T03:19:21.238Z,98908.32
2018-09-22T03:21:49.546Z,98908.77
2018-09-22T03:24:17.845Z,98912.36
2018-09-22T03:26:46.170Z,98919.38
2018-09-22T03:29:14.502Z,98920.44
2018-09-22T03:31:42.891Z,98921.84
2018-09-22T03:34:11.195Z,98920.64
2018-09-22T03:36:39.516Z,98922.33
2018-09-22T03:39:09.240Z,98921.84
2018-09-22T03:41:37.514Z,98930.77
2018-09-22T03:44:05.797Z,98920.94
2018-09-22T03:46:34.091Z,98924.09
2018-09-22T03:49:02.388Z,98923.63
2018-09-22T03:51:30.666Z,98925.95
2018-09-22T03:53:59.002Z,98927.61
2018-09-22T03:56:27.323Z,98921.56
2018-09-22T03:58:55.743Z,98926.34
2018-09-22T04:01:24.088Z,98920.09
2018-09-22T04:03:52.458Z,98917.22
2018-09-22T04:06:20.785Z,98923.78
2018-09-22T04:08:49.077Z,98926.50
2018-09-22T04:11:17.398Z,98920.32
2018-09-22T04:13:45.692Z,98930.92
2018-09-22T04:16:13.988Z,98937.62
2018-09-22T04:18:42.286Z,98934.05
2018-09-22T04:21:10.597Z,98945.70
2018-09-22T04:23:38.867Z,98956.00
2018-09-22T04:26:07.215Z,98954.13
2018-09-22T04:28:35.520Z,98960.67
2018-09-22T04:31:03.819Z,98957.16
2018-09-22T04:33:32.278Z,98955.34
2018-09-22T04:36:00.445Z,98960.91
2018-09-22T04:38:28.746Z,98968.83
2018-09-22T04:40:57.058Z,98967.17
2018-09-22T04:43:25.321Z,98970.55
2018-09-22T04:45:53.636Z,98969.69
2018-09-22T04:48:21.979Z,98972.02
2018-09-22T04:50:50.277Z,98968.78
2018-09-22T04:53:18.576Z,98974.73
2018-09-22T04:55:46.859Z,98978.02
2018-09-22T04:58:15.139Z,98979.27
2018-09-22T05:00:43.464Z,98983.16
2018-09-22T05:03:12.361Z,98983.16
2018-09-22T05:05:40.686Z,99000.71
2018-09-22T05:08:09.048Z,98996.60
2018-09-22T05:10:37.380Z,99002.19
2018-09-22T05:13:05.765Z,99005.77
2018-09-22T05:15:34.067Z,99007.57
2018-09-22T05:18:02.385Z,99014.56
2018-09-22T05:20:30.715Z,99015.41
2018-09-22T05:22:59.013Z,99010.02
2018-09-22T05:25:27.370Z,99017.23
2018-09-22T05:27:55.685Z,99031.97
2018-09-22T05:30:23.971Z,99028.91
2018-09-22T05:32:52.283Z,99027.93
2018-09-22T05:35:20.566Z,99041.02
2018-09-22T05:37:48.856Z,99033.59
2018-09-22T05:40:17.244Z,99033.70
2018-09-22T05:42:45.530Z,99034.92
2018-09-22T05:45:13.859Z,99026.72
2018-09-22T05:47:42.134Z,99033.48
2018-09-22T05:50:10.503Z,99037.28
2018-09-22T05:52:38.942Z,99045.66
2018-09-22T05:55:07.290Z,99059.19
2018-09-22T05:57:35.582Z,99064.08
2018-09-22T06:00:03.899Z,99055.81
2018-09-22T06:02:32.203Z,99047.96
2018-09-22T06:05:00.590Z,99052.88
2018-09-22T06:07:28.942Z,99055.69
2018-09-22T06:09:57.269Z,99068.45
2018-09-22T06:12:25.600Z,99058.38
2018-09-22T06:14:53.914Z,99068.38
2018-09-22T06:17:22.227Z,99073.22
2018-09-22T06:19:50.649Z,99079.29
2018-09-22T06:22:18.962Z,99057.81
2018-09-22T06:24:47.222Z,99071.13
2018-09-22T06:27:15.514Z,99070.91
2018-09-22T06:29:43.802Z,99071.67
2018-09-22T06:32:12.144Z,99065.42
2018-09-22T06:34:40.472Z,99074.70
2018-09-22T06:37:08.893Z,99086.53
2018-09-22T06:39:37.176Z,99072.75
2018-09-22T06:42:05.480Z,99071.34
2018-09-22T06:44:33.774Z,99067.44
2018-09-22T06:47:02.162Z,99065.75
2018-09-22T06:49:30.455Z,99070.41
2018-09-22T06:51:58.800Z,99074.64
2018-09-22T06:54:27.203Z,99078.67
2018-09-22T06:56:55.704Z,99073.22
2018-09-22T06:59:23.977Z,99084.28
2018-09-22T07:01:52.285Z,99080.09
2018-09-22T07:04:20.874Z,99081.61
2018-09-22T07:06:49.566Z,99079.86
2018-09-22T07:09:17.933Z,99088.48
2018-09-22T07:11:46.242Z,99087.25
2018-09-22T07:14:14.531Z,99093.36
2018-09-22T07:16:42.890Z,99103.02
2018-09-22T07:19:11.170Z,99107.19
2018-09-22T07:21:44.726Z,99098.95
2018-09-22T07:24:13.127Z,99096.84
2018-09-22T07:26:41.415Z,99101.13
2018-09-22T07:29:09.902Z,99105.64
2018-09-22T07:31:38.306Z,99092.41
2018-09-22T07:34:06.610Z,99095.43
2018-09-22T07:36:34.946Z,99103.31
2018-09-22T07:39:03.458Z,99089.40
2018-09-22T07:41:31.909Z,99090.32
2018-09-22T07:44:00.206Z,99093.31
2018-09-22T07:46:28.553Z,99098.26
2018-09-22T07:48:56.859Z,99101.78
2018-09-22T07:51:25.183Z,99107.19
2018-09-22T07:53:53.482Z,99100.45
2018-09-22T07:56:21.857Z,99116.22
2018-09-22T07:58:50.198Z,99113.79
2018-09-22T08:01:18.697Z,99113.34
2018-09-22T08:03:47.016Z,99116.52
2018-09-22T08:06:15.336Z,99118.19
2018-09-22T08:08:43.689Z,99129.30
2018-09-22T08:11:11.977Z,99120.27
2018-09-22T08:13:40.330Z,99128.17
2018-09-22T08:16:09.138Z,99140.11
2018-09-22T08:18:37.520Z,99141.37
2018-09-22T08:21:06.074Z,99137.52
2018-09-22T08:23:34.399Z,99141.95
2018-09-22T08:26:02.821Z,99136.53
2018-09-22T08:28:31.186Z,99138.27
2018-09-22T08:30:59.636Z,99142.39
2018-09-22T08:33:27.962Z,99140.42
2018-09-22T08:35:56.271Z,99136.16
2018-09-22T08:38:24.607Z,99141.94
2018-09-22T08:40:52.940Z,99143.46
2018-09-22T08:43:21.259Z,99136.06
2018-09-22T08:45:49.546Z,99143.31
2018-09-22T08:48:17.883Z,99140.59
2018-09-22T08:50:46.198Z,99142.20
2018-09-22T08:53:14.516Z,99142.27
2018-09-22T08:55:42.833Z,99143.66
2018-09-22T08:58:11.214Z,99143.55
2018-09-22T09:00:39.526Z,99152.55
2018-09-22T09:03:07.857Z,99159.91
2018-09-22T09:05:36.289Z,99166.53
2018-09-22T09:08:04.600Z,99164.34
2018-09-22T09:10:32.875Z,99150.08
2018-09-22T09:13:01.409Z,99157.20
2018-09-22T09:15:29.722Z,99160.33
2018-09-22T09:17:58.111Z,99150.80
2018-09-22T09:20:26.427Z,99154.02
2018-09-22T09:22:54.734Z,99158.05
2018-09-22T09:25:23.259Z,99159.66
2018-09-22T09:27:51.557Z,99149.30
2018-09-22T09:30:19.896Z,99152.33
2018-09-22T09:32:48.683Z,99155.52
2018-09-22T09:35:17.000Z,99154.30
2018-09-22T09:37:45.327Z,99160.98
2018-09-22T09:40:13.688Z,99165.68
2018-09-22T09:42:42.017Z,99156.80
2018-09-22T09:45:10.398Z,99148.80
2018-09-22T09:47:38.719Z,99147.25
2018-09-22T09:50:07.227Z,99147.72
2018-09-22T09:52:36.350Z,99141.02
2018-09-22T09:55:04.829Z,99133.22
2018-09-22T09:57:33.138Z,99131.28
2018-09-22T10:00:02.880Z,99125.52
2018-09-22T10:02:31.211Z,99104.13
2018-09-22T10:04:59.570Z,99118.02
2018-09-22T10:07:28.042Z,99119.77
2018-09-22T10:09:56.330Z,99121.73
2018-09-22T10:12:24.651Z,99123.64
2018-09-22T10:14:53.070Z,99129.24
2018-09-22T10:17:21.371Z,99122.84
2018-09-22T10:19:50.134Z,99121.87
2018-09-22T10:22:18.464Z,99120.20
2018-09-22T10:24:46.822Z,99108.80
2018-09-22T10:27:15.161Z,99109.02
2018-09-22T10:29:43.526Z,99105.91
2018-09-22T10:32:12.747Z,99102.72
2018-09-22T10:34:41.046Z,99090.09
2018-09-22T10:37:09.366Z,99085.58
2018-09-22T10:39:37.708Z,99095.21
2018-09-22T10:42:06.249Z,99087.09
2018-09-22T10:44:35.413Z,99085.23
2018-09-22T10:47:03.753Z,99092.31
2018-09-22T10:49:32.096Z,99088.12
2018-09-22T10:52:00.364Z,99080.66
2018-09-22T10:54:28.856Z,99074.28
2018-09-22T10:56:57.163Z,99072.84
2018-09-22T10:59:25.475Z,99072.34
2018-09-22T11:01:53.807Z,99078.37
2018-09-22T11:04:22.123Z,99083.02
2018-09-22T11:06:50.612Z,99082.16
2018-09-22T11:09:18.963Z,99079.13
2018-09-22T11:11:47.259Z,99089.27
2018-09-22T11:14:15.580Z,99086.64
2018-09-22T11:16:43.999Z,99080.45
2018-09-22T11:19:12.339Z,99081.00
2018-09-22T11:21:40.642Z,99090.17
2018-09-22T11:24:08.959Z,99091.38
2018-09-22T11:26:37.235Z,99093.01
2018-09-22T11:29:05.782Z,99089.89
2018-09-22T11:31:34.102Z,99098.97
2018-09-22T11:34:02.430Z,99081.86
2018-09-22T11:36:30.811Z,99087.28
2018-09-22T11:38:59.124Z,99089.66
2018-09-22T11:41:27.422Z,99079.88
2018-09-22T11:43:55.754Z,99084.62
2018-09-22T11:46:24.144Z,99077.04
2018-09-22T11:48:52.328Z,99074.75
2018-09-22T11:51:20.723Z,99073.39
2018-09-22T11:53:48.995Z,99064.02
2018-09-22T11:56:17.336Z,99064.69
2018-09-22T11:58:45.638Z,99059.65
2018-09-22T12:01:13.953Z,99048.55
2018-09-22T12:03:42.328Z,99055.73
2018-09-22T12:06:10.693Z,99049.55
2018-09-22T12:08:38.943Z,99046.19
2018-09-22T12:11:07.260Z,99058.64
2018-09-22T12:13:35.550Z,99062.47
2018-09-22T12:16:05.977Z,99062.84
2018-09-22T12:18:34.638Z,99055.13
2018-09-22T12:21:02.966Z,99054.30
2018-09-22T12:23:32.002Z,99045.52
2018-09-22T12:26:00.485Z,99041.45
2018-09-22T12:28:29.215Z,99029.53
2018-09-22T12:30:57.565Z,99033.60
2018-09-22T12:33:25.874Z,99035.80
2018-09-22T12:35:54.157Z,99042.36
2018-09-22T12:38:22.638Z,99039.55
2018-09-22T12:40:50.954Z,99045.26
2018-09-22T12:43:19.272Z,99030.44
2018-09-22T12:45:47.594Z,99036.84
2018-09-22T12:48:15.886Z,99034.98
2018-09-22T12:50:44.233Z,99030.27
2018-09-22T12:53:12.506Z,99032.43
2018-09-22T12:55:40.811Z,99040.02
2018-09-22T12:58:09.155Z,99043.33
2018-09-22T13:00:37.452Z,99056.75
2018-09-22T13:03:05.737Z,99052.92
2018-09-22T13:05:34.079Z,99043.16
2018-09-22T13:08:02.370Z,99034.80
2018-09-22T13:10:30.704Z,99029.56
2018-09-22T13:12:59.022Z,99028.73
2018-09-22T13:15:27.370Z,99018.14
2018-09-22T13:17:55.699Z,99008.70
2018-09-22T13:20:24.100Z,99009.38
2018-09-22T13:22:52.477Z,98996.74
2018-09-22T13:25:20.833Z,99013.25
2018-09-22T13:27:49.132Z,99006.02
2018-09-22T13:30:17.419Z,98984.33
2018-09-22T13:32:45.729Z,98988.00
2018-09-22T13:35:14.021Z,99006.50
2018-09-22T13:37:42.340Z,98996.78
2018-09-22T13:40:10.720Z,98999.64
2018-09-22T13:42:39.074Z,98985.67
2018-09-22T13:45:07.650Z,98980.09
2018-09-22T13:47:35.942Z,98983.28
2018-09-22T13:50:04.306Z,98981.27
2018-09-22T13:52:32.598Z,98992.55
2018-09-22T13:55:00.989Z,98990.89
2018-09-22T13:57:30.003Z,98996.59
2018-09-22T13:59:59.220Z,98991.05
2018-09-22T14:02:27.693Z,98993.91
2018-09-22T14:04:56.279Z,98999.09
2018-09-22T14:07:24.689Z,98981.27
2018-09-22T14:09:59.918Z,98958.73
2018-09-22T14:12:28.302Z,98937.18
2018-09-22T14:14:58.545Z,98945.92
2018-09-22T14:17:27.049Z,98944.25
2018-09-22T14:19:55.573Z,98946.95
2018-09-22T14:22:25.875Z,98950.31
2018-09-22T14:24:55.187Z,98948.97
2018-09-22T14:27:23.560Z,98933.97
2018-09-22T14:29:51.971Z,98928.89
2018-09-22T14:32:20.265Z,98940.52
2018-09-22T14:34:48.544Z,98931.46
2018-09-22T14:37:16.938Z,98936.48
2018-09-22T14:39:45.426Z,98931.30
2018-09-22T14:42:13.750Z,98929.28
2018-09-22T14:44:42.031Z,98929.07
2018-09-22T14:47:12.121Z,98929.10
2018-09-22T14:49:41.565Z,98938.33
2018-09-22T14:52:10.152Z,98940.20
2018-09-22T14:54:38.670Z,98919.98
2018-09-22T14:57:09.744Z,98928.40
2018-09-22T14:59:38.305Z,98941.37
2018-09-22T15:02:07.602Z,98954.35
2018-09-22T15:04:36.300Z,98953.01
2018-09-22T15:07:04.875Z,98949.47
2018-09-22T15:09:33.402Z,98946.95
2018-09-22T15:12:01.712Z,98939.38
2018-09-22T15:14:30.030Z,98937.67
2018-09-22T15:16:58.647Z,98931.63
2018-09-22T15:19:26.956Z,98941.40
2018-09-22T15:21:55.283Z,98935.83
2018-09-22T15:24:23.799Z,98923.06
2018-09-22T15:26:52.187Z,98924.70
2018-09-22T15:29:20.508Z,98931.14
2018-09-22T15:31:48.866Z,98935.81
2018-09-22T15:34:17.141Z,98935.66
2018-09-22T15:36:45.556Z,98936.85
2018-09-22T15:39:13.855Z,98935.50
2018-09-22T15:41:42.171Z,98934.15
2018-09-22T15:44:10.711Z,98932.79
2018-09-22T15:46:39.006Z,98932.48
2018-09-22T15:49:07.682Z,98941.58
2018-09-22T15:51:35.964Z,98929.80
2018-09-22T15:54:04.314Z,98929.78
2018-09-22T15:56:32.607Z,98929.13
2018-09-22T15:59:00.938Z,98918.67
2018-09-22T16:01:29.287Z,98919.34
2018-09-22T16:03:57.578Z,98913.63
2018-09-22T16:06:25.954Z,98929.78
2018-09-22T16:08:54.303Z,98927.59
2018-09-22T16:11:22.784Z,98930.09
2018-09-22T16:13:51.094Z,98918.66
2018-09-22T16:16:19.447Z,98911.94
2018-09-22T16:18:48.015Z,98896.81
2018-09-22T16:21:16.580Z,98895.13
2018-09-22T16:23:45.004Z,98884.38
2018-09-22T16:26:13.403Z,98887.20
2018-09-22T16:28:41.720Z,98903.17
2018-09-22T16:31:10.386Z,98904.34
2018-09-22T16:33:39.300Z,98913.39
2018-09-22T16:36:07.743Z,98913.22
2018-09-22T16:38:36.146Z,98915.91
2018-09-22T16:41:04.516Z,98918.42
2018-09-22T16:43:32.843Z,98927.59
2018-09-22T16:46:01.177Z,98926.48
2018-09-22T16:48:29.562Z,98929.10
2018-09-22T16:50:57.874Z,98935.66
2018-09-22T16:53:26.254Z,98933.39
2018-09-22T16:55:54.562Z,98925.17
2018-09-22T16:58:22.942Z,98928.86
2018-09-22T17:00:51.247Z,98919.05
2018-09-22T17:03:19.562Z,98934.55
2018-09-22T17:05:47.957Z,98955.58
2018-09-22T17:08:16.464Z,98969.56
2018-09-22T17:10:44.825Z,98982.00
2018-09-22T17:13:13.170Z,98991.56
2018-09-22T17:15:41.475Z,98998.47
2018-09-22T17:18:10.058Z,99006.97
2018-09-22T17:20:38.591Z,98993.41
2018-09-22T17:23:07.106Z,98993.98
2018-09-22T17:25:35.419Z,98975.88
2018-09-22T17:28:03.790Z,98977.78
2018-09-22T17:30:32.374Z,98971.05
2018-09-22T17:33:00.902Z,98966.98
2018-09-22T17:35:29.214Z,98961.70
2018-09-22T17:37:57.675Z,98961.97
2018-09-22T17:40:25.994Z,98964.28
2018-09-22T17:42:54.370Z,98954.66
2018-09-22T17:45:22.674Z,98957.19
2018-09-22T17:47:50.982Z,98951.34
2018-09-22T17:50:19.304Z,98951.41
2018-09-22T17:52:47.858Z,98958.19
2018-09-22T17:55:16.183Z,98954.19
2018-09-22T17:57:44.511Z,98947.74
2018-09-22T18:00:12.817Z,98938.88
2018-09-22T18:02:41.130Z,98934.87
2018-09-22T18:05:09.410Z,98939.30
2018-09-22T18:07:37.764Z,98948.57
2018-09-22T18:10:06.075Z,98957.60
2018-09-22T18:12:34.386Z,98974.63
2018-09-22T18:15:02.680Z,98985.75
2018-09-22T18:17:31.011Z,98977.77
2018-09-22T18:19:59.293Z,99001.64
2018-09-22T18:22:27.763Z,98997.02
2018-09-22T18:24:56.449Z,98991.16
2018-09-22T18:27:25.073Z,98988.18
2018-09-22T18:29:53.430Z,98987.36
2018-09-22T18:32:21.746Z,98994.84
2018-09-22T18:34:50.043Z,98987.98
2018-09-22T18:37:18.953Z,98983.87
2018-09-22T18:39:50.536Z,98987.69
2018-09-22T18:42:18.845Z,98991.42
2018-09-22T18:44:47.156Z,98994.44
2018-09-22T18:47:15.436Z,98995.41
2018-09-22T18:49:43.756Z,98992.23
2018-09-22T18:52:12.045Z,98994.06
2018-09-22T18:54:40.567Z,98988.30
2018-09-22T18:57:08.989Z,99001.58
2018-09-22T18:59:37.653Z,98991.14
2018-09-22T19:02:05.975Z,98990.84
2018-09-22T19:04:34.373Z,98991.28
2018-09-22T19:07:02.915Z,98992.62
2018-09-22T19:09:32.029Z,98990.75
2018-09-22T19:12:00.338Z,98986.41
2018-09-22T19:14:36.241Z,98976.33
2018-09-22T19:17:08.262Z,98987.25
2018-09-22T19:19:40.257Z,98984.00
2018-09-22T19:22:11.816Z,98983.44
2018-09-22T19:24:45.043Z,98979.75
2018-09-22T19:28:22.835Z,98979.30
2018-09-22T19:30:52.001Z,98989.77
2018-09-22T19:33:26.414Z,99002.48
2018-09-22T19:36:14.750Z,99014.89
2018-09-22T19:39:47.317Z,99010.73
2018-09-22T19:42:18.958Z,98997.42
2018-09-22T19:44:52.644Z,98997.97
2018-09-22T19:47:27.116Z,99012.19
2018-09-22T19:49:57.448Z,99013.27
2018-09-22T19:52:30.175Z,99016.33
2018-09-22T19:54:58.504Z,99020.31
2018-09-22T19:57:26.827Z,99022.20
2018-09-22T19:59:55.185Z,99024.38
2018-09-22T20:02:23.461Z,99022.97
2018-09-22T20:04:52.043Z,99015.45
2018-09-22T20:07:20.754Z,99025.16
2018-09-22T20:09:49.154Z,99023.05
2018-09-22T20:12:17.500Z,99017.28
2018-09-22T20:14:45.784Z,99010.66
2018-09-22T20:17:14.172Z,99014.02
2018-09-22T20:19:42.522Z,99014.46
2018-09-22T20:22:11.014Z,99016.14
2018-09-22T20:24:39.350Z,99005.94
2018-09-22T20:27:07.673Z,99006.28
2018-09-22T20:29:36.152Z,98998.55
2018-09-22T20:32:04.499Z,98994.45
2018-09-22T20:34:32.819Z,99003.37
2018-09-22T20:37:01.158Z,99005.94
2018-09-22T20:39:29.578Z,99013.13
2018-09-22T20:41:57.902Z,99007.83
2018-09-22T20:44:26.338Z,99015.94
2018-09-22T20:46:54.618Z,99007.22
2018-09-22T20:49:22.972Z,98988.41
2018-09-22T20:51:51.316Z,98980.52
2018-09-22T20:54:19.608Z,98971.36
2018-09-22T20:56:47.964Z,98986.67
2018-09-22T20:59:16.311Z,98997.56
2018-09-22T21:01:44.638Z,98997.66
2018-09-22T21:04:12.966Z,98986.87
2018-09-22T21:06:41.467Z,98986.30
2018-09-22T21:09:10.819Z,98998.43
2018-09-22T21:11:39.707Z,98993.19
2018-09-22T21:14:08.036Z,98999.19
2018-09-22T21:16:36.547Z,98996.64
2018-09-22T21:19:04.986Z,98998.40
2018-09-22T21:21:33.285Z,98999.53
2018-09-22T21:24:01.592Z,99002.33
2018-09-22T21:26:29.887Z,99002.40
2018-09-22T21:28:58.195Z,99003.55
2018-09-22T21:31:26.553Z,99009.09
2018-09-22T21:33:54.825Z,99004.11
2018-09-22T21:36:23.154Z,99001.36
2018-09-22T21:38:51.441Z,99006.37
2018-09-22T21:41:19.780Z,99001.50
2018-09-22T21:43:48.982Z,98991.57
2018-09-22T21:46:17.286Z,98984.55
2018-09-22T21:48:45.612Z,98986.72
2018-09-22T21:51:13.924Z,98979.97
2018-09-22T21:53:42.311Z,98986.63
2018-09-22T21:56:10.610Z,98974.78
2018-09-22T21:58:38.925Z,98973.16
2018-09-22T22:01:11.500Z,98970.20
2018-09-22T22:03:39.779Z,98958.44
2018-09-22T22:06:08.165Z,98971.47
2018-09-22T22:08:36.479Z,98960.41
2018-09-22T22:11:04.774Z,98961.26
2018-09-22T22:13:33.168Z,98968.94
2018-09-22T22:16:01.487Z,98972.06
2018-09-22T22:18:29.791Z,98962.81
2018-09-22T22:20:58.105Z,98965.13
2018-09-22T22:23:26.423Z,98958.30
2018-09-22T22:25:54.758Z,98962.24
2018-09-22T22:28:23.186Z,98965.14
2018-09-22T22:30:51.475Z,98970.13
2018-09-22T22:33:19.783Z,98973.86
2018-09-22T22:35:48.102Z,98969.69
2018-09-22T22:38:16.371Z,98972.71
2018-09-22T22:40:44.718Z,98966.83
2018-09-22T22:43:13.077Z,98970.61
2018-09-22T22:45:41.406Z,98960.84
2018-09-22T22:48:09.725Z,98958.87
2018-09-22T22:50:38.029Z,98958.02
2018-09-22T22:53:06.347Z,98950.73
2018-09-22T22:55:34.627Z,98946.43
2018-09-22T22:58:02.942Z,98946.70
2018-09-22T23:00:31.277Z,98950.70
2018-09-22T23:02:59.583Z,98951.13
2018-09-22T23:05:27.885Z,98942.77
2018-09-22T23:07:56.286Z,98942.19
2018-09-22T23:10:24.608Z,98935.03
2018-09-22T23:12:52.943Z,98930.95
2018-09-22T23:15:21.397Z,98929.88
2018-09-22T23:17:49.691Z,98926.51
2018-09-22T23:20:18.010Z,98929.47
2018-09-22T23:22:46.286Z,98932.90
2018-09-22T23:25:14.635Z,98939.09
2018-09-22T23:27:42.957Z,98934.87
2018-09-22T23:30:11.420Z,98925.17
2018-09-22T23:32:39.699Z,98922.84
2018-09-22T23:35:07.962Z,98913.57
2018-09-22T23:37:36.294Z,98915.44
2018-09-22T23:40:04.841Z,98913.90
2018-09-22T23:42:33.213Z,98925.28
2018-09-22T23:45:01.506Z,98918.47
2018-09-22T23:47:29.809Z,98917.50
2018-09-22T23:49:58.125Z,98906.59
2018-09-22T23:52:26.446Z,98896.06
2018-09-22T23:54:54.787Z,98900.36
2018-09-22T23:57:23.122Z,98909.72
2018-09-22T23:59:51.424Z,98915.88
